Troy Grove, IL (61372)

1:25 PM CST on February 14, 2016 (GMT -0600)
KILLAMOI3 | | Change Station
CLOSE
Current Station
Personal Weather Station
Location: La Moille, IL
Elevation: 0 ft
Nearby Weather Stations
Active Advisory: Winter Weather Advisory Active Notice: Local Storm Report

Elev 0 ft 41.48 °N, 89.22 °W | Updated 12 minutes ago

Snow
Snow
16.4 °F
Feels Like 0 °F
N
20.0
Wind Variable Wind from SE
Gusts 23.0 mph

Today
High -- | Low -- °F
--% Chance of Precip.
Yesterday
High -- | Low -- °F
Precip. -- in
Pressure 30.11 in
Visibility 2.5 miles
Clouds Scattered Clouds 1200 ft
Scattered Clouds 1700 ft
Overcast 5000 ft
Windchill 0 °F
Dew Point 13 °F
Humidity 86%
Rainfall 0.00 in
Snow Depth Not available.
6:53 AM 5:28 PM
Waxing Crescent, 44% visible
METAR KVYS 141915Z AUTO 12016G19KT 2 1/2SM -SN SCT012 SCT017 OVC050 M07/M09 A3011 RMK AO2 T10701090
Pressure 30.11 in
Visibility 2.5 miles
Clouds Scattered Clouds 1200 ft
Scattered Clouds 1700 ft
Overcast 5000 ft
Windchill 0 °F
Dew Point 13 °F
Humidity 86%
Rainfall 0.00 in
Snow Depth Not available.
6:53 AM 5:28 PM
Waxing Crescent, 44% visible
METAR KVYS 141915Z AUTO 12016G19KT 2 1/2SM -SN SCT012 SCT017 OVC050 M07/M09 A3011 RMK AO2 T10701090

10-Day Weather Forecast

Almanac

Astronomy

Feb. 14, 2016 Rise Set
Actual Time
Civil Twilight
Nautical Twilight
Astronomical Twilight
Moon
Length of Visible Light
Length of Day
Tomorrow will be .
, % of the Moon is Illuminated

Today's Extremes

State Highs State Lows

Community

WunderPhotos

Upload Photos

1,892,875 photos uploaded!

WunderBlog® & News

Nearby

Air Quality

  Air Quality AQ Index Pollutant
Not available.

Snow Depth

Station Depth Elevation

Earthquake Activity

City Distance Mag. Time & Date
Minimum magnitude displayed is 2.5.

Coastal Water Temperatures

Place Temperature

Stations

Nearby Weather Stations

Station Location Temp. Windchill Dew Point Humidity Wind Precip. Elev Updated Type
                   

Watches & Warnings

Winter Weather Advisory
Issued: 9:31 AM CST Feb. 14, 2016 – National Weather Service

... Winter Weather Advisory remains in effect until midnight CST
tonight...

* timing... this morning through this evening.

* Snow accumulation... 3 to 5 inches storm total.

* Winds... southeast 15 to 25 mph with gusts up to 30 mph.

* Main impact... snow accumulation on roads will make travel
hazardous. Blowing and drifting snow will also be possible.

Precautionary/preparedness actions...

A Winter Weather Advisory for snow means that periods of snow
will cause primarily travel difficulties. Be prepared for snow
covered roads and limited visibilities... and use caution while
driving.



Beachler